sensor_id;sensor_type;location;lat;lon;timestamp;temperature;humidity
5711;DHT22;61291;52.524;13.422;2023-04-15T00:01:26;9.10;99.90
5711;DHT22;61291;52.524;13.422;2023-04-15T00:03:52;9.10;99.90
5711;DHT22;61291;52.524;13.422;2023-04-15T00:06:18;9.10;99.90
5711;DHT22;61291;52.524;13.422;2023-04-15T00:08:45;9.10;99.90
5711;DHT22;61291;52.524;13.422;2023-04-15T00:11:11;9.10;99.90
5711;DHT22;61291;52.524;13.422;2023-04-15T00:13:36;9.10;99.90
5711;DHT22;61291;52.524;13.422;2023-04-15T00:16:02;9.10;99.90
5711;DHT22;61291;52.524;13.422;2023-04-15T00:18:28;9.10;99.90
5711;DHT22;61291;52.524;13.422;2023-04-15T00:20:54;9.10;99.90
5711;DHT22;61291;52.524;13.422;2023-04-15T00:23:19;9.10;99.90
5711;DHT22;61291;52.524;13.422;2023-04-15T00:25:45;9.00;99.90
5711;DHT22;61291;52.524;13.422;2023-04-15T00:28:11;9.00;99.90
5711;DHT22;61291;52.524;13.422;2023-04-15T00:30:36;9.00;99.90
5711;DHT22;61291;52.524;13.422;2023-04-15T00:33:02;9.00;99.90
5711;DHT22;61291;52.524;13.422;2023-04-15T00:35:28;9.00;99.90
5711;DHT22;61291;52.524;13.422;2023-04-15T00:37:53;9.00;99.90
5711;DHT22;61291;52.524;13.422;2023-04-15T00:40:20;9.00;99.90
5711;DHT22;61291;52.524;13.422;2023-04-15T00:42:48;9.00;99.90
5711;DHT22;61291;52.524;13.422;2023-04-15T00:45:14;9.00;99.90
5711;DHT22;61291;52.524;13.422;2023-04-15T00:47:43;9.00;99.90
5711;DHT22;61291;52.524;13.422;2023-04-15T00:50:10;9.00;99.90
5711;DHT22;61291;52.524;13.422;2023-04-15T00:52:37;9.00;99.90
5711;DHT22;61291;52.524;13.422;2023-04-15T00:55:03;9.00;99.90
5711;DHT22;61291;52.524;13.422;2023-04-15T00:57:29;9.00;99.90
5711;DHT22;61291;52.524;13.422;2023-04-15T00:59:56;9.00;99.90
5711;DHT22;61291;52.524;13.422;2023-04-15T01:02:22;9.00;99.90
5711;DHT22;61291;52.524;13.422;2023-04-15T01:04:48;9.00;99.90
5711;DHT22;61291;52.524;13.422;2023-04-15T01:07:14;9.00;99.90
5711;DHT22;61291;52.524;13.422;2023-04-15T01:10:01;9.00;99.90
5711;DHT22;61291;52.524;13.422;2023-04-15T01:12:26;9.00;99.90
5711;DHT22;61291;52.524;13.422;2023-04-15T01:14:54;9.00;99.90
5711;DHT22;61291;52.524;13.422;2023-04-15T01:17:42;9.00;99.90
5711;DHT22;61291;52.524;13.422;2023-04-15T01:20:12;9.00;99.90
5711;DHT22;61291;52.524;13.422;2023-04-15T01:22:37;9.00;99.90
5711;DHT22;61291;52.524;13.422;2023-04-15T01:25:12;9.00;99.90
5711;DHT22;61291;52.524;13.422;2023-04-15T01:27:41;9.00;99.90
5711;DHT22;61291;52.524;13.422;2023-04-15T01:30:07;9.00;99.90
5711;DHT22;61291;52.524;13.422;2023-04-15T01:32:33;9.00;99.90
5711;DHT22;61291;52.524;13.422;2023-04-15T01:34:58;9.00;99.90
5711;DHT22;61291;52.524;13.422;2023-04-15T01:37:24;9.00;99.90
5711;DHT22;61291;52.524;13.422;2023-04-15T01:39:50;9.00;99.90
5711;DHT22;61291;52.524;13.422;2023-04-15T01:42:16;9.00;99.90
5711;DHT22;61291;52.524;13.422;2023-04-15T01:44:41;9.00;99.90
5711;DHT22;61291;52.524;13.422;2023-04-15T01:47:07;9.00;99.90
5711;DHT22;61291;52.524;13.422;2023-04-15T01:49:33;9.00;99.90
5711;DHT22;61291;52.524;13.422;2023-04-15T01:51:58;9.00;99.90
5711;DHT22;61291;52.524;13.422;2023-04-15T01:54:25;9.00;99.90
5711;DHT22;61291;52.524;13.422;2023-04-15T01:56:51;9.00;99.90
5711;DHT22;61291;52.524;13.422;2023-04-15T01:59:17;9.00;99.90
5711;DHT22;61291;52.524;13.422;2023-04-15T02:01:43;9.00;99.90
5711;DHT22;61291;52.524;13.422;2023-04-15T02:04:09;9.00;99.90
5711;DHT22;61291;52.524;13.422;2023-04-15T02:06:41;9.00;99.90
5711;DHT22;61291;52.524;13.422;2023-04-15T02:09:07;9.00;99.90
5711;DHT22;61291;52.524;13.422;2023-04-15T02:11:33;9.00;99.90
5711;DHT22;61291;52.524;13.422;2023-04-15T02:13:59;9.00;99.90
5711;DHT22;61291;52.524;13.422;2023-04-15T02:16:24;9.00;99.90
5711;DHT22;61291;52.524;13.422;2023-04-15T02:18:50;9.10;99.90
5711;DHT22;61291;52.524;13.422;2023-04-15T02:21:16;9.10;99.90
5711;DHT22;61291;52.524;13.422;2023-04-15T02:23:43;9.10;99.90
5711;DHT22;61291;52.524;13.422;2023-04-15T02:26:08;9.10;99.90
5711;DHT22;61291;52.524;13.422;2023-04-15T02:28:34;9.00;99.90
5711;DHT22;61291;52.524;13.422;2023-04-15T02:31:00;9.00;99.90
5711;DHT22;61291;52.524;13.422;2023-04-15T02:33:29;9.00;99.90
5711;DHT22;61291;52.524;13.422;2023-04-15T02:35:56;9.00;99.90
5711;DHT22;61291;52.524;13.422;2023-04-15T02:38:22;9.00;99.90
5711;DHT22;61291;52.524;13.422;2023-04-15T02:40:47;9.00;99.90
5711;DHT22;61291;52.524;13.422;2023-04-15T02:43:14;9.00;99.90
5711;DHT22;61291;52.524;13.422;2023-04-15T02:45:41;9.00;99.90
5711;DHT22;61291;52.524;13.422;2023-04-15T02:48:07;9.00;99.90
5711;DHT22;61291;52.524;13.422;2023-04-15T02:50:33;9.00;99.90
5711;DHT22;61291;52.524;13.422;2023-04-15T02:52:59;9.00;99.90
5711;DHT22;61291;52.524;13.422;2023-04-15T02:55:25;9.10;99.90
5711;DHT22;61291;52.524;13.422;2023-04-15T02:57:51;9.10;99.90
5711;DHT22;61291;52.524;13.422;2023-04-15T03:00:16;9.10;99.90
5711;DHT22;61291;52.524;13.422;2023-04-15T03:02:43;9.10;99.90
5711;DHT22;61291;52.524;13.422;2023-04-15T03:05:12;9.10;99.90
5711;DHT22;61291;52.524;13.422;2023-04-15T03:07:38;9.10;99.90
5711;DHT22;61291;52.524;13.422;2023-04-15T03:10:06;9.20;99.90
5711;DHT22;61291;52.524;13.422;2023-04-15T03:12:31;9.20;99.90
5711;DHT22;61291;52.524;13.422;2023-04-15T03:14:57;9.20;99.90
5711;DHT22;61291;52.524;13.422;2023-04-15T03:17:22;9.20;99.90
5711;DHT22;61291;52.524;13.422;2023-04-15T03:19:48;9.20;99.90
5711;DHT22;61291;52.524;13.422;2023-04-15T03:22:13;9.20;99.90
5711;DHT22;61291;52.524;13.422;2023-04-15T03:24:39;9.20;99.90
5711;DHT22;61291;52.524;13.422;2023-04-15T03:27:04;9.20;99.90
5711;DHT22;61291;52.524;13.422;2023-04-15T03:29:32;9.20;99.90
5711;DHT22;61291;52.524;13.422;2023-04-15T03:31:57;9.30;99.90
5711;DHT22;61291;52.524;13.422;2023-04-15T03:34:23;9.30;99.90
5711;DHT22;61291;52.524;13.422;2023-04-15T03:36:48;9.30;99.90
5711;DHT22;61291;52.524;13.422;2023-04-15T03:39:14;9.30;99.90
5711;DHT22;61291;52.524;13.422;2023-04-15T03:41:39;9.30;99.90
5711;DHT22;61291;52.524;13.422;2023-04-15T03:44:05;9.30;99.90
5711;DHT22;61291;52.524;13.422;2023-04-15T03:46:30;9.30;99.90
5711;DHT22;61291;52.524;13.422;2023-04-15T03:48:56;9.30;99.90
5711;DHT22;61291;52.524;13.422;2023-04-15T03:51:21;9.40;99.90
5711;DHT22;61291;52.524;13.422;2023-04-15T03:53:47;9.30;99.90
5711;DHT22;61291;52.524;13.422;2023-04-15T03:56:12;9.40;99.90
5711;DHT22;61291;52.524;13.422;2023-04-15T03:58:37;9.40;99.90
5711;DHT22;61291;52.524;13.422;2023-04-15T04:01:03;9.40;99.90
5711;DHT22;61291;52.524;13.422;2023-04-15T04:03:28;9.40;99.90
5711;DHT22;61291;52.524;13.422;2023-04-15T04:05:54;9.40;99.90
5711;DHT22;61291;52.524;13.422;2023-04-15T04:08:20;9.40;99.90
5711;DHT22;61291;52.524;13.422;2023-04-15T04:10:46;9.40;99.90
5711;DHT22;61291;52.524;13.422;2023-04-15T04:13:11;9.40;99.90
5711;DHT22;61291;52.524;13.422;2023-04-15T04:15:37;9.40;99.90
5711;DHT22;61291;52.524;13.422;2023-04-15T04:18:02;9.40;99.90
5711;DHT22;61291;52.524;13.422;2023-04-15T04:20:28;9.30;99.90
5711;DHT22;61291;52.524;13.422;2023-04-15T04:22:54;9.40;99.90
5711;DHT22;61291;52.524;13.422;2023-04-15T04:25:19;9.40;99.90
5711;DHT22;61291;52.524;13.422;2023-04-15T04:27:45;9.50;99.90
5711;DHT22;61291;52.524;13.422;2023-04-15T04:30:11;9.50;99.90
5711;DHT22;61291;52.524;13.422;2023-04-15T04:32:37;9.50;99.90
5711;DHT22;61291;52.524;13.422;2023-04-15T04:35:03;9.50;99.90
5711;DHT22;61291;52.524;13.422;2023-04-15T04:37:29;9.50;99.90
5711;DHT22;61291;52.524;13.422;2023-04-15T04:39:54;9.60;99.90
5711;DHT22;61291;52.524;13.422;2023-04-15T04:42:20;9.60;99.90
5711;DHT22;61291;52.524;13.422;2023-04-15T04:44:46;9.60;99.90
5711;DHT22;61291;52.524;13.422;2023-04-15T04:47:11;9.60;99.90
5711;DHT22;61291;52.524;13.422;2023-04-15T04:49:37;9.60;99.90
5711;DHT22;61291;52.524;13.422;2023-04-15T04:52:02;9.70;99.90
5711;DHT22;61291;52.524;13.422;2023-04-15T04:54:28;9.70;99.90
5711;DHT22;61291;52.524;13.422;2023-04-15T04:56:55;9.80;99.90
5711;DHT22;61291;52.524;13.422;2023-04-15T04:59:22;9.80;99.90
5711;DHT22;61291;52.524;13.422;2023-04-15T05:01:47;9.90;99.90
5711;DHT22;61291;52.524;13.422;2023-04-15T05:04:13;9.90;99.90
5711;DHT22;61291;52.524;13.422;2023-04-15T05:06:38;10.00;99.90
5711;DHT22;61291;52.524;13.422;2023-04-15T05:09:04;10.00;99.90
5711;DHT22;61291;52.524;13.422;2023-04-15T05:11:29;10.10;99.90
5711;DHT22;61291;52.524;13.422;2023-04-15T05:13:55;10.10;99.90
5711;DHT22;61291;52.524;13.422;2023-04-15T05:16:20;10.10;99.90
5711;DHT22;61291;52.524;13.422;2023-04-15T05:18:46;10.10;99.90
5711;DHT22;61291;52.524;13.422;2023-04-15T05:21:11;10.10;99.90
5711;DHT22;61291;52.524;13.422;2023-04-15T05:23:37;10.20;99.90
5711;DHT22;61291;52.524;13.422;2023-04-15T05:26:03;10.20;99.90
5711;DHT22;61291;52.524;13.422;2023-04-15T05:28:28;10.20;99.90
5711;DHT22;61291;52.524;13.422;2023-04-15T05:30:54;10.20;99.90
5711;DHT22;61291;52.524;13.422;2023-04-15T05:33:19;10.30;99.90
5711;DHT22;61291;52.524;13.422;2023-04-15T05:35:45;10.20;99.90
5711;DHT22;61291;52.524;13.422;2023-04-15T05:38:11;10.30;99.90
5711;DHT22;61291;52.524;13.422;2023-04-15T05:40:36;10.40;99.90
5711;DHT22;61291;52.524;13.422;2023-04-15T05:43:01;10.40;99.90
5711;DHT22;61291;52.524;13.422;2023-04-15T05:45:27;10.50;99.90
5711;DHT22;61291;52.524;13.422;2023-04-15T05:47:53;10.60;99.90
5711;DHT22;61291;52.524;13.422;2023-04-15T05:50:19;10.60;99.90
5711;DHT22;61291;52.524;13.422;2023-04-15T05:52:45;10.70;99.90
5711;DHT22;61291;52.524;13.422;2023-04-15T05:55:10;10.90;99.90
5711;DHT22;61291;52.524;13.422;2023-04-15T05:57:37;11.00;99.90
5711;DHT22;61291;52.524;13.422;2023-04-15T06:00:03;11.00;99.90
5711;DHT22;61291;52.524;13.422;2023-04-15T06:02:29;11.20;99.90
5711;DHT22;61291;52.524;13.422;2023-04-15T06:04:56;11.40;99.90
5711;DHT22;61291;52.524;13.422;2023-04-15T06:07:22;11.60;99.90
5711;DHT22;61291;52.524;13.422;2023-04-15T06:09:47;11.80;99.90
5711;DHT22;61291;52.524;13.422;2023-04-15T06:12:14;12.10;99.90
5711;DHT22;61291;52.524;13.422;2023-04-15T06:14:39;12.00;99.90
5711;DHT22;61291;52.524;13.422;2023-04-15T06:17:05;12.10;99.90
5711;DHT22;61291;52.524;13.422;2023-04-15T06:19:32;12.10;99.90
5711;DHT22;61291;52.524;13.422;2023-04-15T06:21:58;12.20;99.90
5711;DHT22;61291;52.524;13.422;2023-04-15T06:24:23;12.30;99.90
5711;DHT22;61291;52.524;13.422;2023-04-15T06:26:49;12.30;99.90
5711;DHT22;61291;52.524;13.422;2023-04-15T06:29:14;12.30;99.90
5711;DHT22;61291;52.524;13.422;2023-04-15T06:31:40;12.50;99.90
5711;DHT22;61291;52.524;13.422;2023-04-15T06:34:06;12.60;99.90
5711;DHT22;61291;52.524;13.422;2023-04-15T06:36:31;12.80;99.90
5711;DHT22;61291;52.524;13.422;2023-04-15T06:38:57;12.60;99.90
5711;DHT22;61291;52.524;13.422;2023-04-15T06:41:23;12.70;99.90
5711;DHT22;61291;52.524;13.422;2023-04-15T06:43:48;13.00;99.90
5711;DHT22;61291;52.524;13.422;2023-04-15T06:46:14;12.50;99.90
5711;DHT22;61291;52.524;13.422;2023-04-15T06:48:39;12.90;99.90
5711;DHT22;61291;52.524;13.422;2023-04-15T06:51:05;13.00;99.90
5711;DHT22;61291;52.524;13.422;2023-04-15T06:53:30;13.20;99.90
5711;DHT22;61291;52.524;13.422;2023-04-15T06:55:56;13.00;99.90
5711;DHT22;61291;52.524;13.422;2023-04-15T06:58:21;13.10;99.90
5711;DHT22;61291;52.524;13.422;2023-04-15T07:00:47;13.30;99.90
5711;DHT22;61291;52.524;13.422;2023-04-15T07:03:13;13.50;99.90
5711;DHT22;61291;52.524;13.422;2023-04-15T07:05:39;13.60;99.90
5711;DHT22;61291;52.524;13.422;2023-04-15T07:08:05;13.80;99.90
5711;DHT22;61291;52.524;13.422;2023-04-15T07:10:32;14.00;99.90
5711;DHT22;61291;52.524;13.422;2023-04-15T07:12:57;14.10;99.90
5711;DHT22;61291;52.524;13.422;2023-04-15T07:15:23;13.70;99.90
5711;DHT22;61291;52.524;13.422;2023-04-15T07:17:48;13.30;99.90
5711;DHT22;61291;52.524;13.422;2023-04-15T07:20:14;13.40;99.90
5711;DHT22;61291;52.524;13.422;2023-04-15T07:22:39;13.40;99.90
5711;DHT22;61291;52.524;13.422;2023-04-15T07:25:05;13.50;99.90
5711;DHT22;61291;52.524;13.422;2023-04-15T07:27:31;13.70;99.90
5711;DHT22;61291;52.524;13.422;2023-04-15T07:29:57;13.70;99.90
5711;DHT22;61291;52.524;13.422;2023-04-15T07:32:22;13.70;99.90
5711;DHT22;61291;52.524;13.422;2023-04-15T07:34:48;13.50;99.90
5711;DHT22;61291;52.524;13.422;2023-04-15T07:37:14;13.20;99.90
5711;DHT22;61291;52.524;13.422;2023-04-15T07:39:39;13.40;99.90
5711;DHT22;61291;52.524;13.422;2023-04-15T07:42:05;13.50;99.90
5711;DHT22;61291;52.524;13.422;2023-04-15T07:44:30;13.00;99.90
5711;DHT22;61291;52.524;13.422;2023-04-15T07:46:56;13.00;99.90
5711;DHT22;61291;52.524;13.422;2023-04-15T07:49:22;12.80;99.90
5711;DHT22;61291;52.524;13.422;2023-04-15T07:51:47;12.70;99.90
5711;DHT22;61291;52.524;13.422;2023-04-15T07:54:14;12.70;99.90
5711;DHT22;61291;52.524;13.422;2023-04-15T07:56:39;12.60;99.90
5711;DHT22;61291;52.524;13.422;2023-04-15T07:59:05;12.70;99.90
5711;DHT22;61291;52.524;13.422;2023-04-15T08:01:31;12.80;99.90
5711;DHT22;61291;52.524;13.422;2023-04-15T08:04:00;12.60;99.90
5711;DHT22;61291;52.524;13.422;2023-04-15T08:06:26;12.40;99.90
5711;DHT22;61291;52.524;13.422;2023-04-15T08:08:52;12.50;99.90
5711;DHT22;61291;52.524;13.422;2023-04-15T08:11:19;12.60;99.90
5711;DHT22;61291;52.524;13.422;2023-04-15T08:13:45;12.60;99.90
5711;DHT22;61291;52.524;13.422;2023-04-15T08:16:19;12.70;99.90
5711;DHT22;61291;52.524;13.422;2023-04-15T08:18:49;12.90;99.90
5711;DHT22;61291;52.524;13.422;2023-04-15T08:21:16;12.70;99.90
5711;DHT22;61291;52.524;13.422;2023-04-15T08:23:42;12.90;99.90
5711;DHT22;61291;52.524;13.422;2023-04-15T08:26:08;12.70;99.90
5711;DHT22;61291;52.524;13.422;2023-04-15T08:28:34;12.70;99.90
5711;DHT22;61291;52.524;13.422;2023-04-15T08:31:05;12.40;99.90
5711;DHT22;61291;52.524;13.422;2023-04-15T08:33:30;12.30;99.90
5711;DHT22;61291;52.524;13.422;2023-04-15T08:35:56;12.40;99.90
5711;DHT22;61291;52.524;13.422;2023-04-15T08:38:22;12.70;99.90
5711;DHT22;61291;52.524;13.422;2023-04-15T08:40:48;12.60;99.90
5711;DHT22;61291;52.524;13.422;2023-04-15T08:43:21;12.70;99.90
5711;DHT22;61291;52.524;13.422;2023-04-15T08:45:51;12.90;99.90
5711;DHT22;61291;52.524;13.422;2023-04-15T08:48:17;13.00;99.90
5711;DHT22;61291;52.524;13.422;2023-04-15T08:50:44;13.00;99.90
5711;DHT22;61291;52.524;13.422;2023-04-15T08:53:10;13.00;99.90
5711;DHT22;61291;52.524;13.422;2023-04-15T08:55:43;13.00;99.90
5711;DHT22;61291;52.524;13.422;2023-04-15T08:58:10;12.70;99.90
5711;DHT22;61291;52.524;13.422;2023-04-15T09:00:36;12.70;99.90
5711;DHT22;61291;52.524;13.422;2023-04-15T09:03:04;12.70;99.90
5711;DHT22;61291;52.524;13.422;2023-04-15T09:05:40;12.70;99.90
5711;DHT22;61291;52.524;13.422;2023-04-15T09:08:05;12.40;99.90
5711;DHT22;61291;52.524;13.422;2023-04-15T09:10:33;12.50;99.90
5711;DHT22;61291;52.524;13.422;2023-04-15T09:12:59;12.50;99.90
5711;DHT22;61291;52.524;13.422;2023-04-15T09:15:25;12.70;99.90
5711;DHT22;61291;52.524;13.422;2023-04-15T09:17:54;12.70;99.90
5711;DHT22;61291;52.524;13.422;2023-04-15T09:20:21;13.10;99.90
5711;DHT22;61291;52.524;13.422;2023-04-15T09:22:48;13.20;99.90
5711;DHT22;61291;52.524;13.422;2023-04-15T09:27:51;13.20;99.90
5711;DHT22;61291;52.524;13.422;2023-04-15T09:30:17;13.00;99.90
5711;DHT22;61291;52.524;13.422;2023-04-15T09:35:18;13.40;99.90
5711;DHT22;61291;52.524;13.422;2023-04-15T09:37:44;13.30;99.90
5711;DHT22;61291;52.524;13.422;2023-04-15T09:40:10;13.40;99.90
5711;DHT22;61291;52.524;13.422;2023-04-15T09:42:36;13.40;99.90
5711;DHT22;61291;52.524;13.422;2023-04-15T09:45:11;13.50;99.90
5711;DHT22;61291;52.524;13.422;2023-04-15T09:47:37;13.30;99.90
5711;DHT22;61291;52.524;13.422;2023-04-15T09:50:02;13.20;99.90
5711;DHT22;61291;52.524;13.422;2023-04-15T09:52:28;13.20;99.90
5711;DHT22;61291;52.524;13.422;2023-04-15T09:54:57;13.10;99.90
5711;DHT22;61291;52.524;13.422;2023-04-15T09:57:22;13.00;99.90
5711;DHT22;61291;52.524;13.422;2023-04-15T09:59:49;12.90;99.90
5711;DHT22;61291;52.524;13.422;2023-04-15T10:02:15;12.70;99.90
5711;DHT22;61291;52.524;13.422;2023-04-15T10:04:43;12.70;99.90
5711;DHT22;61291;52.524;13.422;2023-04-15T10:07:10;12.50;99.90
5711;DHT22;61291;52.524;13.422;2023-04-15T10:09:37;12.50;99.90
5711;DHT22;61291;52.524;13.422;2023-04-15T10:12:04;12.70;99.90
5711;DHT22;61291;52.524;13.422;2023-04-15T10:14:33;12.70;99.90
5711;DHT22;61291;52.524;13.422;2023-04-15T10:17:01;12.40;99.90
5711;DHT22;61291;52.524;13.422;2023-04-15T10:19:30;12.50;99.90
5711;DHT22;61291;52.524;13.422;2023-04-15T10:21:56;12.30;99.90
5711;DHT22;61291;52.524;13.422;2023-04-15T10:24:23;12.40;99.90
5711;DHT22;61291;52.524;13.422;2023-04-15T10:26:50;12.40;99.90
5711;DHT22;61291;52.524;13.422;2023-04-15T10:29:15;12.50;99.90
5711;DHT22;61291;52.524;13.422;2023-04-15T10:31:41;12.60;99.90
5711;DHT22;61291;52.524;13.422;2023-04-15T10:34:08;12.50;99.90
5711;DHT22;61291;52.524;13.422;2023-04-15T10:36:33;12.30;99.90
5711;DHT22;61291;52.524;13.422;2023-04-15T10:38:59;12.40;99.90
5711;DHT22;61291;52.524;13.422;2023-04-15T10:41:26;12.60;99.90
5711;DHT22;61291;52.524;13.422;2023-04-15T10:44:03;12.70;99.90
5711;DHT22;61291;52.524;13.422;2023-04-15T10:46:35;12.70;99.90
5711;DHT22;61291;52.524;13.422;2023-04-15T10:51:37;13.00;99.90
5711;DHT22;61291;52.524;13.422;2023-04-15T10:54:30;13.50;99.90
5711;DHT22;61291;52.524;13.422;2023-04-15T10:59:28;13.30;99.90
5711;DHT22;61291;52.524;13.422;2023-04-15T11:01:56;13.30;99.90
5711;DHT22;61291;52.524;13.422;2023-04-15T11:04:53;13.60;99.90
5711;DHT22;61291;52.524;13.422;2023-04-15T11:07:38;13.50;99.90
5711;DHT22;61291;52.524;13.422;2023-04-15T11:12:46;13.00;99.90
5711;DHT22;61291;52.524;13.422;2023-04-15T11:15:36;13.00;99.90
5711;DHT22;61291;52.524;13.422;2023-04-15T11:18:21;12.80;99.90
5711;DHT22;61291;52.524;13.422;2023-04-15T11:20:52;12.40;99.90
5711;DHT22;61291;52.524;13.422;2023-04-15T11:23:29;12.40;99.90
5711;DHT22;61291;52.524;13.422;2023-04-15T11:25:56;12.20;99.90
5711;DHT22;61291;52.524;13.422;2023-04-15T11:28:25;12.20;99.90
5711;DHT22;61291;52.524;13.422;2023-04-15T11:30:51;12.30;99.90
5711;DHT22;61291;52.524;13.422;2023-04-15T11:33:18;12.40;99.90
5711;DHT22;61291;52.524;13.422;2023-04-15T11:35:44;12.30;99.90
5711;DHT22;61291;52.524;13.422;2023-04-15T11:38:11;12.30;99.90
5711;DHT22;61291;52.524;13.422;2023-04-15T11:40:37;12.40;99.90
5711;DHT22;61291;52.524;13.422;2023-04-15T11:43:13;12.40;99.90
5711;DHT22;61291;52.524;13.422;2023-04-15T11:46:00;12.30;99.90
5711;DHT22;61291;52.524;13.422;2023-04-15T11:48:33;12.40;99.90
5711;DHT22;61291;52.524;13.422;2023-04-15T11:51:01;12.30;99.90
5711;DHT22;61291;52.524;13.422;2023-04-15T11:53:47;12.30;99.90
5711;DHT22;61291;52.524;13.422;2023-04-15T11:56:23;12.40;99.90
5711;DHT22;61291;52.524;13.422;2023-04-15T11:58:56;12.30;99.90
5711;DHT22;61291;52.524;13.422;2023-04-15T12:01:35;12.10;99.90
5711;DHT22;61291;52.524;13.422;2023-04-15T12:04:01;12.10;99.90
5711;DHT22;61291;52.524;13.422;2023-04-15T12:06:34;12.20;99.90
5711;DHT22;61291;52.524;13.422;2023-04-15T12:09:12;12.10;99.90
5711;DHT22;61291;52.524;13.422;2023-04-15T12:11:58;12.00;99.90
5711;DHT22;61291;52.524;13.422;2023-04-15T12:16:56;11.90;99.90
5711;DHT22;61291;52.524;13.422;2023-04-15T12:19:37;12.00;99.90
5711;DHT22;61291;52.524;13.422;2023-04-15T12:22:05;12.10;99.90
5711;DHT22;61291;52.524;13.422;2023-04-15T12:24:34;12.30;99.90
5711;DHT22;61291;52.524;13.422;2023-04-15T12:27:08;12.50;99.90
5711;DHT22;61291;52.524;13.422;2023-04-15T12:29:37;12.70;99.90
5711;DHT22;61291;52.524;13.422;2023-04-15T12:32:11;12.60;99.90
5711;DHT22;61291;52.524;13.422;2023-04-15T12:34:48;12.70;99.90
5711;DHT22;61291;52.524;13.422;2023-04-15T12:37:14;12.90;99.90
5711;DHT22;61291;52.524;13.422;2023-04-15T12:39:41;13.10;99.90
5711;DHT22;61291;52.524;13.422;2023-04-15T12:42:08;13.10;99.90
5711;DHT22;61291;52.524;13.422;2023-04-15T12:44:34;13.40;99.90
5711;DHT22;61291;52.524;13.422;2023-04-15T12:47:00;13.40;99.90
5711;DHT22;61291;52.524;13.422;2023-04-15T12:49:27;13.50;99.90
5711;DHT22;61291;52.524;13.422;2023-04-15T12:51:55;13.40;99.90
5711;DHT22;61291;52.524;13.422;2023-04-15T12:54:21;13.30;99.90
5711;DHT22;61291;52.524;13.422;2023-04-15T12:56:48;13.10;99.90
5711;DHT22;61291;52.524;13.422;2023-04-15T12:59:15;13.10;99.90
5711;DHT22;61291;52.524;13.422;2023-04-15T13:01:41;13.00;99.90
5711;DHT22;61291;52.524;13.422;2023-04-15T13:04:07;12.90;99.90
5711;DHT22;61291;52.524;13.422;2023-04-15T13:06:33;13.00;99.90
5711;DHT22;61291;52.524;13.422;2023-04-15T13:08:59;13.00;99.90
5711;DHT22;61291;52.524;13.422;2023-04-15T13:11:26;13.00;99.90
5711;DHT22;61291;52.524;13.422;2023-04-15T13:13:51;12.80;99.90
5711;DHT22;61291;52.524;13.422;2023-04-15T13:16:17;12.80;99.90
5711;DHT22;61291;52.524;13.422;2023-04-15T13:18:43;12.80;99.90
5711;DHT22;61291;52.524;13.422;2023-04-15T13:21:09;12.90;99.90
5711;DHT22;61291;52.524;13.422;2023-04-15T13:23:35;13.00;99.90
5711;DHT22;61291;52.524;13.422;2023-04-15T13:26:01;13.00;99.90
5711;DHT22;61291;52.524;13.422;2023-04-15T13:28:26;12.90;99.90
5711;DHT22;61291;52.524;13.422;2023-04-15T13:30:52;12.90;99.90
5711;DHT22;61291;52.524;13.422;2023-04-15T13:33:17;12.80;99.90
5711;DHT22;61291;52.524;13.422;2023-04-15T13:35:43;12.70;99.90
5711;DHT22;61291;52.524;13.422;2023-04-15T13:38:08;12.40;99.90
5711;DHT22;61291;52.524;13.422;2023-04-15T13:40:34;12.30;99.90
5711;DHT22;61291;52.524;13.422;2023-04-15T13:42:59;12.20;99.90
5711;DHT22;61291;52.524;13.422;2023-04-15T13:45:26;12.20;99.90
5711;DHT22;61291;52.524;13.422;2023-04-15T13:47:52;12.30;99.90
5711;DHT22;61291;52.524;13.422;2023-04-15T13:50:18;12.20;99.90
5711;DHT22;61291;52.524;13.422;2023-04-15T13:52:43;12.20;99.90
5711;DHT22;61291;52.524;13.422;2023-04-15T13:55:09;12.40;99.90
5711;DHT22;61291;52.524;13.422;2023-04-15T13:57:34;12.30;99.90
5711;DHT22;61291;52.524;13.422;2023-04-15T14:00:01;12.30;99.90
5711;DHT22;61291;52.524;13.422;2023-04-15T14:02:26;12.30;99.90
5711;DHT22;61291;52.524;13.422;2023-04-15T14:04:52;12.20;99.90
5711;DHT22;61291;52.524;13.422;2023-04-15T14:07:17;12.30;99.90
5711;DHT22;61291;52.524;13.422;2023-04-15T14:09:43;12.30;99.90
5711;DHT22;61291;52.524;13.422;2023-04-15T14:12:09;12.50;99.90
5711;DHT22;61291;52.524;13.422;2023-04-15T14:14:35;12.60;99.90
5711;DHT22;61291;52.524;13.422;2023-04-15T14:17:02;12.70;99.90
5711;DHT22;61291;52.524;13.422;2023-04-15T14:19:29;12.70;99.90
5711;DHT22;61291;52.524;13.422;2023-04-15T14:21:54;12.60;99.90
5711;DHT22;61291;52.524;13.422;2023-04-15T14:24:20;12.60;99.90
5711;DHT22;61291;52.524;13.422;2023-04-15T14:26:45;12.50;99.90
5711;DHT22;61291;52.524;13.422;2023-04-15T14:29:11;12.40;99.90
5711;DHT22;61291;52.524;13.422;2023-04-15T14:31:37;12.40;99.90
5711;DHT22;61291;52.524;13.422;2023-04-15T14:34:02;12.40;99.90
5711;DHT22;61291;52.524;13.422;2023-04-15T14:36:28;12.30;99.90
5711;DHT22;61291;52.524;13.422;2023-04-15T14:38:53;12.20;99.90
5711;DHT22;61291;52.524;13.422;2023-04-15T14:41:19;12.20;99.90
5711;DHT22;61291;52.524;13.422;2023-04-15T14:43:44;12.00;99.90
5711;DHT22;61291;52.524;13.422;2023-04-15T14:46:10;11.90;99.90
5711;DHT22;61291;52.524;13.422;2023-04-15T14:48:36;11.80;99.90
5711;DHT22;61291;52.524;13.422;2023-04-15T14:51:01;11.80;99.90
5711;DHT22;61291;52.524;13.422;2023-04-15T14:53:27;11.80;99.90
5711;DHT22;61291;52.524;13.422;2023-04-15T14:55:52;11.80;99.90
5711;DHT22;61291;52.524;13.422;2023-04-15T14:58:18;11.90;99.90
5711;DHT22;61291;52.524;13.422;2023-04-15T15:00:43;11.80;99.90
5711;DHT22;61291;52.524;13.422;2023-04-15T15:03:10;11.80;99.90
5711;DHT22;61291;52.524;13.422;2023-04-15T15:05:43;11.80;99.90
5711;DHT22;61291;52.524;13.422;2023-04-15T15:08:09;11.80;99.90
5711;DHT22;61291;52.524;13.422;2023-04-15T15:10:35;11.80;99.90
5711;DHT22;61291;52.524;13.422;2023-04-15T15:13:05;11.70;99.90
5711;DHT22;61291;52.524;13.422;2023-04-15T15:15:32;11.70;99.90
5711;DHT22;61291;52.524;13.422;2023-04-15T15:17:57;11.70;99.90
5711;DHT22;61291;52.524;13.422;2023-04-15T15:20:24;11.70;99.90
5711;DHT22;61291;52.524;13.422;2023-04-15T15:22:50;11.70;99.90
5711;DHT22;61291;52.524;13.422;2023-04-15T15:25:15;11.70;99.90
5711;DHT22;61291;52.524;13.422;2023-04-15T15:27:41;11.60;99.90
5711;DHT22;61291;52.524;13.422;2023-04-15T15:30:07;11.60;99.90
5711;DHT22;61291;52.524;13.422;2023-04-15T15:32:32;11.60;99.90
5711;DHT22;61291;52.524;13.422;2023-04-15T15:34:58;11.60;99.90
5711;DHT22;61291;52.524;13.422;2023-04-15T15:37:23;11.60;99.90
5711;DHT22;61291;52.524;13.422;2023-04-15T15:39:51;11.60;99.90
5711;DHT22;61291;52.524;13.422;2023-04-15T15:42:18;11.70;99.90
5711;DHT22;61291;52.524;13.422;2023-04-15T15:44:43;11.70;99.90
5711;DHT22;61291;52.524;13.422;2023-04-15T15:47:09;11.70;99.90
5711;DHT22;61291;52.524;13.422;2023-04-15T15:49:35;11.70;99.90